Terminal Aerodrome Forecast
Issued by NWS

Home | Current Version | Previous Version | Graphics & Text | Print | Product List | Glossary On
Versions: 1 2 3 4 5 6 7 8 9 10 11 12 13 14 15 16 17
316
FTUS42 KMHX 170532
TAFOAJ
TAF
KOAJ 170532Z 1706/1806 03005KT P6SM SCT090
     FM170900 00000KT P6SM OVC008
     FM171600 02008KT P6SM OVC020
     FM171900 03008KT P6SM OVC070
      AMD LTD TO CLD VIS AND WIND=

USA.gov is the U.S. government's official web portal to all federal, state and local government web resources and services.